Time;durP1;ratioP1;P1;durP2;ratioP2;P2;SDS_P1;SDS_P2;PMS_P1;PMS_P2;Temp;Humidity;BMP_temperature;BMP_pressure;BME280_temperature;BME280_humidity;BME280_pressure;Samples;Min_cycle;Max_cycle;Signal;HPM_P1;HPM_P2
2023/03/17 00:00:42;;;;;;;3.28;2.10;;;;;;;;;;6221113;23;20027;-93
2023/03/17 00:03:16;;;;;;;4.65;2.38;;;;;;;;;;6219407;23;20012;-96
2023/03/17 00:05:45;;;;;;;7.00;3.00;;;;;;;;;;6221846;23;20008;-95
2023/03/17 00:08:22;;;;;;;6.40;2.80;;;;;;;;;;6197415;23;20035;-96
2023/03/17 00:10:49;;;;;;;4.57;2.90;;;;;;;;;;6220856;23;20011;-95
2023/03/17 00:13:15;;;;;;;6.18;3.25;;;;;;;;;;6219472;23;20015;-96
2023/03/17 00:15:42;;;;;;;4.28;2.20;;;;;;;;;;6219905;23;20008;-95
2023/03/17 00:18:16;;;;;;;4.05;2.03;;;;;;;;;;6220957;23;20019;-95
2023/03/17 00:20:42;;;;;;;5.20;3.25;;;;;;;;;;6224887;22;20019;-95
2023/03/17 00:23:15;;;;;;;10.50;2.78;;;;;;;;;;6197721;23;20019;-96
2023/03/17 00:25:42;;;;;;;4.00;2.38;;;;;;;;;;6221586;23;20011;-95
2023/03/17 00:28:12;;;;;;;6.28;2.90;;;;;;;;;;6197277;23;20042;-95
2023/03/17 00:30:46;;;;;;;4.05;2.25;;;;;;;;;;6220250;23;20337;-95
2023/03/17 00:33:15;;;;;;;5.30;2.58;;;;;;;;;;6220965;23;20091;-95
2023/03/17 00:35:42;;;;;;;3.63;2.42;;;;;;;;;;6220029;23;20005;-95
2023/03/17 00:38:19;;;;;;;8.85;3.50;;;;;;;;;;6221408;23;20004;-95
2023/03/17 00:40:45;;;;;;;6.13;2.83;;;;;;;;;;6221356;23;20024;-95
2023/03/17 00:43:12;;;;;;;8.60;3.28;;;;;;;;;;6220143;23;20330;-95
2023/03/17 00:45:39;;;;;;;4.68;3.28;;;;;;;;;;6248725;23;20011;-95
2023/03/17 00:48:12;;;;;;;8.65;2.45;;;;;;;;;;6224118;23;20012;-92
2023/03/17 00:50:41;;;;;;;5.78;2.88;;;;;;;;;;6199706;23;20012;-95
2023/03/17 00:53:15;;;;;;;7.20;3.15;;;;;;;;;;6223702;23;20040;-94
2023/03/17 00:55:43;;;;;;;5.95;1.92;;;;;;;;;;6226911;23;20011;-95
2023/03/17 00:58:19;;;;;;;3.75;1.67;;;;;;;;;;6229049;23;20011;-95
2023/03/17 01:00:48;;;;;;;7.78;3.10;;;;;;;;;;6229188;23;20015;-95
2023/03/17 01:03:15;;;;;;;4.28;2.50;;;;;;;;;;6231031;23;20011;-95
2023/03/17 01:05:42;;;;;;;4.68;3.03;;;;;;;;;;6229658;23;20010;-95
2023/03/17 01:08:09;;;;;;;4.43;2.65;;;;;;;;;;6232355;23;20004;-96
2023/03/17 01:10:39;;;;;;;4.05;2.20;;;;;;;;;;6234963;23;20008;-95
2023/03/17 01:13:06;;;;;;;7.38;3.25;;;;;;;;;;6228777;23;20428;-96
2023/03/17 01:15:32;;;;;;;6.60;2.92;;;;;;;;;;6228811;23;20004;-96
2023/03/17 01:17:59;;;;;;;4.70;2.60;;;;;;;;;;6205986;23;20012;-96
2023/03/17 01:20:30;;;;;;;5.13;3.08;;;;;;;;;;6212907;23;20012;-96
2023/03/17 01:22:56;;;;;;;4.63;2.95;;;;;;;;;;6239110;23;20080;-96
2023/03/17 01:25:22;;;;;;;6.38;2.75;;;;;;;;;;6215097;23;20012;-96
2023/03/17 01:27:49;;;;;;;2.17;1.83;;;;;;;;;;6241380;23;20011;-96
2023/03/17 01:30:15;;;;;;;4.10;2.25;;;;;;;;;;6215030;23;20014;-95
2023/03/17 01:32:48;;;;;;;5.10;3.15;;;;;;;;;;6241075;22;19995;-96
2023/03/17 01:35:16;;;;;;;6.10;2.50;;;;;;;;;;6210873;23;20037;-96
2023/03/17 01:37:49;;;;;;;9.05;3.60;;;;;;;;;;6233017;23;20015;-96
2023/03/17 01:40:21;;;;;;;6.00;3.25;;;;;;;;;;6232375;23;20012;-96
2023/03/17 01:43:07;;;;;;;6.28;3.05;;;;;;;;;;6239739;23;20015;-96
2023/03/17 01:45:53;;;;;;;3.83;2.60;;;;;;;;;;6268952;22;20012;-95
2023/03/17 01:48:19;;;;;;;6.35;2.90;;;;;;;;;;6229287;23;20004;-95
2023/03/17 01:50:47;;;;;;;9.95;2.95;;;;;;;;;;6227812;23;20012;-96
2023/03/17 01:53:14;;;;;;;6.93;3.13;;;;;;;;;;6230268;23;20004;-96
2023/03/17 01:55:41;;;;;;;9.30;3.55;;;;;;;;;;6229819;23;20066;-95
2023/03/17 01:58:08;;;;;;;6.40;2.80;;;;;;;;;;6230750;23;20008;-95
2023/03/17 02:00:34;;;;;;;6.53;3.08;;;;;;;;;;6202467;23;20091;-96
2023/03/17 02:03:01;;;;;;;7.68;3.35;;;;;;;;;;6202836;23;20079;-96
2023/03/17 02:05:29;;;;;;;5.82;3.28;;;;;;;;;;6227415;23;20004;-95
2023/03/17 02:07:56;;;;;;;4.97;3.10;;;;;;;;;;6227820;23;20066;-95
2023/03/17 02:10:24;;;;;;;6.28;3.25;;;;;;;;;;6228860;23;20311;-95
2023/03/17 02:12:56;;;;;;;8.55;3.47;;;;;;;;;;6239070;22;20026;-95
2023/03/17 02:15:22;;;;;;;11.57;3.25;;;;;;;;;;6241388;23;20011;-95
2023/03/17 02:17:48;;;;;;;9.02;3.40;;;;;;;;;;6216727;22;20059;-95
2023/03/17 02:20:17;;;;;;;12.00;3.08;;;;;;;;;;6241723;23;20012;-95
2023/03/17 02:22:51;;;;;;;10.95;2.85;;;;;;;;;;6241767;22;20000;-95
2023/03/17 02:25:18;;;;;;;6.45;2.90;;;;;;;;;;6238534;23;20035;-95
2023/03/17 02:27:45;;;;;;;9.30;3.45;;;;;;;;;;6237669;23;20000;-96
2023/03/17 02:30:13;;;;;;;7.47;3.25;;;;;;;;;;6238324;23;20011;-95
2023/03/17 02:32:39;;;;;;;8.85;3.22;;;;;;;;;;6236456;23;20008;-96
2023/03/17 02:35:07;;;;;;;3.67;2.15;;;;;;;;;;6212634;23;20095;-94
2023/03/17 02:37:33;;;;;;;5.20;3.03;;;;;;;;;;6212289;23;20008;-95
2023/03/17 02:40:04;;;;;;;6.22;3.22;;;;;;;;;;6238137;23;20411;-94
2023/03/17 02:42:31;;;;;;;13.05;3.30;;;;;;;;;;6237996;23;20012;-94
2023/03/17 02:44:57;;;;;;;6.78;3.20;;;;;;;;;;6234977;23;20015;-93
2023/03/17 02:47:23;;;;;;;9.65;4.00;;;;;;;;;;6211614;23;20060;-95
2023/03/17 02:49:50;;;;;;;6.30;3.22;;;;;;;;;;6235390;23;20000;-93
2023/03/17 02:52:16;;;;;;;7.93;3.15;;;;;;;;;;6211501;23;20654;-94
2023/03/17 02:54:42;;;;;;;4.38;2.83;;;;;;;;;;6208384;23;20076;-94
2023/03/17 02:57:08;;;;;;;11.65;3.38;;;;;;;;;;6211661;23;20294;-92
2023/03/17 02:59:35;;;;;;;5.15;2.72;;;;;;;;;;6236317;22;20011;-96
2023/03/17 03:02:01;;;;;;;8.32;3.13;;;;;;;;;;6215371;23;19992;-96
2023/03/17 03:04:31;;;;;;;5.28;2.92;;;;;;;;;;6240274;23;20016;-96
2023/03/17 03:06:57;;;;;;;6.35;2.95;;;;;;;;;;6214717;23;20012;-95
2023/03/17 03:09:24;;;;;;;6.20;3.47;;;;;;;;;;6241182;23;20026;-95
2023/03/17 03:11:51;;;;;;;5.70;4.13;;;;;;;;;;6239983;23;20026;-95
2023/03/17 03:14:17;;;;;;;6.07;3.33;;;;;;;;;;6240465;23;20008;-95
2023/03/17 03:16:43;;;;;;;6.53;3.10;;;;;;;;;;6241243;23;20517;-96
2023/03/17 03:19:09;;;;;;;6.68;3.10;;;;;;;;;;6241618;23;20008;-96
2023/03/17 03:21:36;;;;;;;6.13;3.05;;;;;;;;;;6243635;22;20011;-96
2023/03/17 03:24:06;;;;;;;7.07;3.13;;;;;;;;;;6241375;23;20032;-96
2023/03/17 03:26:32;;;;;;;45.75;3.80;;;;;;;;;;6241401;23;19996;-96
2023/03/17 03:28:58;;;;;;;5.78;3.03;;;;;;;;;;6240843;23;20022;-96
2023/03/17 03:31:25;;;;;;;4.75;3.10;;;;;;;;;;6216472;23;20078;-95
2023/03/17 03:33:51;;;;;;;12.15;3.53;;;;;;;;;;6241166;23;19996;-96
2023/03/17 03:36:17;;;;;;;8.82;3.65;;;;;;;;;;6216367;23;19999;-96
2023/03/17 03:38:44;;;;;;;8.00;3.67;;;;;;;;;;6216471;23;20068;-96
2023/03/17 03:41:11;;;;;;;8.45;3.75;;;;;;;;;;6241359;23;20088;-96
2023/03/17 03:43:38;;;;;;;8.73;2.55;;;;;;;;;;6237921;23;20064;-94
2023/03/17 03:46:04;;;;;;;4.88;3.53;;;;;;;;;;6214637;23;20019;-95
2023/03/17 03:48:31;;;;;;;5.55;3.30;;;;;;;;;;6239644;23;19996;-95
2023/03/17 03:50:58;;;;;;;4.50;2.88;;;;;;;;;;6240213;23;20000;-95
2023/03/17 03:53:25;;;;;;;7.13;3.03;;;;;;;;;;6241101;23;20008;-96
2023/03/17 03:55:51;;;;;;;7.28;3.97;;;;;;;;;;6241081;22;20038;-96
2023/03/17 03:58:17;;;;;;;8.07;3.60;;;;;;;;;;6216502;23;20063;-94
2023/03/17 04:00:43;;;;;;;6.35;3.35;;;;;;;;;;6240851;23;19996;-94
2023/03/17 04:03:09;;;;;;;8.35;3.08;;;;;;;;;;6217365;23;20023;-96
2023/03/17 04:05:35;;;;;;;8.27;3.25;;;;;;;;;;6241603;22;20018;-96
2023/03/17 04:08:01;;;;;;;5.90;2.90;;;;;;;;;;6241997;23;20004;-95
2023/03/17 04:10:27;;;;;;;6.10;2.67;;;;;;;;;;6240819;23;20031;-96
2023/03/17 04:12:54;;;;;;;7.15;3.40;;;;;;;;;;6211370;23;20019;-95
2023/03/17 04:15:21;;;;;;;10.18;3.92;;;;;;;;;;6209002;23;20018;-96
2023/03/17 04:17:47;;;;;;;7.97;3.10;;;;;;;;;;6233528;23;20011;-96
2023/03/17 04:20:14;;;;;;;6.22;3.67;;;;;;;;;;6231581;23;20012;-96
2023/03/17 04:22:42;;;;;;;6.25;3.35;;;;;;;;;;6237947;22;20047;-94
2023/03/17 04:25:09;;;;;;;4.57;2.63;;;;;;;;;;6232238;23;20004;-95
2023/03/17 04:27:35;;;;;;;7.22;3.10;;;;;;;;;;6235047;23;20379;-95
2023/03/17 04:30:02;;;;;;;6.93;3.35;;;;;;;;;;6235889;23;20049;-96
2023/03/17 04:32:28;;;;;;;6.95;2.88;;;;;;;;;;6205843;23;20079;-94
2023/03/17 04:34:54;;;;;;;5.28;3.08;;;;;;;;;;6205128;23;20014;-95
2023/03/17 04:37:21;;;;;;;7.90;3.35;;;;;;;;;;6228105;23;20799;-96
2023/03/17 04:39:47;;;;;;;7.10;3.50;;;;;;;;;;6204359;23;20028;-96
2023/03/17 04:42:13;;;;;;;5.97;3.47;;;;;;;;;;6228987;23;20026;-96
2023/03/17 04:44:40;;;;;;;10.85;3.30;;;;;;;;;;6202842;23;20469;-95
2023/03/17 04:47:06;;;;;;;10.73;2.90;;;;;;;;;;6204071;23;20022;-94
2023/03/17 04:49:32;;;;;;;6.00;3.10;;;;;;;;;;6228986;23;20000;-96
2023/03/17 04:52:00;;;;;;;7.60;2.67;;;;;;;;;;6228319;23;20008;-96
2023/03/17 04:54:26;;;;;;;6.10;3.30;;;;;;;;;;6203736;23;20238;-96
2023/03/17 04:56:52;;;;;;;5.97;3.63;;;;;;;;;;6230770;23;20008;-96
2023/03/17 04:59:19;;;;;;;9.00;3.88;;;;;;;;;;6227395;22;20000;-96
2023/03/17 05:01:46;;;;;;;7.82;3.28;;;;;;;;;;6256003;23;20015;-95
2023/03/17 05:04:12;;;;;;;7.07;3.30;;;;;;;;;;6228405;23;20012;-95
2023/03/17 05:06:40;;;;;;;7.15;2.85;;;;;;;;;;6229040;23;20027;-96
2023/03/17 05:09:09;;;;;;;6.78;3.40;;;;;;;;;;6202640;23;20614;-95
2023/03/17 05:11:41;;;;;;;8.38;3.05;;;;;;;;;;6253744;23;20095;-94
2023/03/17 05:14:07;;;;;;;5.55;2.67;;;;;;;;;;6203576;23;20016;-93
2023/03/17 05:16:33;;;;;;;7.07;3.13;;;;;;;;;;6200646;23;20016;-94
2023/03/17 05:18:59;;;;;;;5.55;2.85;;;;;;;;;;6201321;23;20008;-95
2023/03/17 05:21:25;;;;;;;8.23;3.15;;;;;;;;;;6252914;22;20103;-94
2023/03/17 05:23:51;;;;;;;6.97;3.22;;;;;;;;;;6200727;23;20012;-95
2023/03/17 05:26:18;;;;;;;10.30;3.35;;;;;;;;;;6198415;23;20004;-93
2023/03/17 05:28:47;;;;;;;9.05;4.93;;;;;;;;;;6200072;23;20004;-93
2023/03/17 05:31:17;;;;;;;10.05;3.47;;;;;;;;;;6201107;23;20036;-93
2023/03/17 05:33:45;;;;;;;6.07;3.28;;;;;;;;;;6226227;23;20172;-96
2023/03/17 05:36:14;;;;;;;7.63;3.67;;;;;;;;;;6198592;23;20457;-94
2023/03/17 05:38:40;;;;;;;7.13;3.03;;;;;;;;;;6199723;23;20042;-94
2023/03/17 05:41:07;;;;;;;7.90;3.20;;;;;;;;;;6224377;23;20011;-95
2023/03/17 05:43:33;;;;;;;7.15;2.60;;;;;;;;;;6223896;23;20011;-94
2023/03/17 05:45:59;;;;;;;9.10;3.53;;;;;;;;;;6223113;23;20470;-94
2023/03/17 05:48:25;;;;;;;5.05;3.10;;;;;;;;;;6198511;23;20004;-96
2023/03/17 05:50:52;;;;;;;8.07;3.83;;;;;;;;;;6200987;23;20012;-96
2023/03/17 05:53:18;;;;;;;6.50;3.90;;;;;;;;;;6230008;23;20000;-96
2023/03/17 05:55:44;;;;;;;7.97;3.20;;;;;;;;;;6199538;23;20012;-93
2023/03/17 05:58:11;;;;;;;6.10;3.40;;;;;;;;;;6249255;23;20178;-93
2023/03/17 06:00:37;;;;;;;15.38;3.55;;;;;;;;;;6224729;23;20034;-96
2023/03/17 06:03:04;;;;;;;8.57;3.42;;;;;;;;;;6198482;23;20443;-95
2023/03/17 06:05:30;;;;;;;6.57;3.40;;;;;;;;;;6223612;23;20071;-95
2023/03/17 06:07:56;;;;;;;9.02;3.55;;;;;;;;;;6222875;23;20008;-95
2023/03/17 06:10:23;;;;;;;7.63;3.53;;;;;;;;;;6198270;23;20008;-95
2023/03/17 06:12:49;;;;;;;7.38;3.75;;;;;;;;;;6198060;23;20031;-96
2023/03/17 06:15:15;;;;;;;10.48;3.25;;;;;;;;;;6199039;23;20586;-96
2023/03/17 06:17:42;;;;;;;7.32;3.83;;;;;;;;;;6227261;23;20064;-94
2023/03/17 06:20:08;;;;;;;10.10;3.67;;;;;;;;;;6222871;23;20039;-94
2023/03/17 06:22:36;;;;;;;13.68;4.20;;;;;;;;;;6226112;22;20020;-95
2023/03/17 06:25:04;;;;;;;6.05;3.13;;;;;;;;;;6250813;23;20394;-96
2023/03/17 06:27:31;;;;;;;10.40;4.75;;;;;;;;;;6198110;23;20080;-96
2023/03/17 06:29:59;;;;;;;7.43;3.38;;;;;;;;;;6198144;23;20004;-95
2023/03/17 06:32:25;;;;;;;8.52;3.45;;;;;;;;;;6224772;23;20012;-96
2023/03/17 06:34:52;;;;;;;7.22;3.58;;;;;;;;;;6198882;23;20021;-96
2023/03/17 06:37:20;;;;;;;8.93;3.35;;;;;;;;;;6199163;23;20014;-96
2023/03/17 06:39:46;;;;;;;9.88;4.07;;;;;;;;;;6224844;23;20008;-96
2023/03/17 06:42:13;;;;;;;9.65;3.38;;;;;;;;;;6198025;23;20011;-95
2023/03/17 06:44:40;;;;;;;8.10;3.33;;;;;;;;;;6222271;23;20466;-96
2023/03/17 06:47:06;;;;;;;11.80;3.65;;;;;;;;;;6222966;23;20631;-96
2023/03/17 06:49:33;;;;;;;6.57;3.65;;;;;;;;;;6224909;23;20007;-96
2023/03/17 06:51:59;;;;;;;8.15;4.28;;;;;;;;;;6225687;23;20008;-96
2023/03/17 06:54:25;;;;;;;15.75;3.85;;;;;;;;;;6222866;23;20012;-96
2023/03/17 06:56:52;;;;;;;5.90;3.47;;;;;;;;;;6223834;23;20000;-96
2023/03/17 06:59:19;;;;;;;8.18;3.80;;;;;;;;;;6199146;22;20063;-95
2023/03/17 07:01:45;;;;;;;11.00;3.88;;;;;;;;;;6198449;23;20016;-95
2023/03/17 07:04:12;;;;;;;6.03;3.13;;;;;;;;;;6224864;23;20012;-95
2023/03/17 07:06:41;;;;;;;8.38;3.38;;;;;;;;;;6201321;23;20008;-96
2023/03/17 07:09:08;;;;;;;7.63;3.45;;;;;;;;;;6225686;23;20614;-96
2023/03/17 07:11:35;;;;;;;7.47;3.85;;;;;;;;;;6223683;23;20472;-94
2023/03/17 07:14:12;;;;;;;7.20;3.28;;;;;;;;;;6203648;23;20769;-94
2023/03/17 07:16:39;;;;;;;8.20;3.28;;;;;;;;;;6194830;23;20034;-90
2023/03/17 07:19:06;;;;;;;8.43;3.75;;;;;;;;;;6196164;23;20111;-89
2023/03/17 07:21:45;;;;;;;6.28;3.00;;;;;;;;;;6195297;22;20791;-88
2023/03/17 07:24:12;;;;;;;12.80;3.75;;;;;;;;;;6165442;23;20021;-89
2023/03/17 07:26:38;;;;;;;8.23;3.67;;;;;;;;;;6161406;23;20012;-90
2023/03/17 07:29:04;;;;;;;13.38;4.15;;;;;;;;;;6162807;23;20386;-91
2023/03/17 07:31:31;;;;;;;8.82;3.60;;;;;;;;;;6162459;23;20076;-90
2023/03/17 07:34:00;;;;;;;7.18;3.40;;;;;;;;;;6189161;23;20434;-89
2023/03/17 07:36:27;;;;;;;8.10;3.45;;;;;;;;;;6186874;23;20016;-89
2023/03/17 07:38:54;;;;;;;10.88;4.20;;;;;;;;;;6186494;23;20062;-88
2023/03/17 07:41:20;;;;;;;7.55;3.60;;;;;;;;;;6162028;23;20438;-88
2023/03/17 07:43:46;;;;;;;7.80;3.83;;;;;;;;;;6186642;23;20087;-89
2023/03/17 07:46:13;;;;;;;5.72;2.92;;;;;;;;;;6164239;23;20012;-88
2023/03/17 07:48:41;;;;;;;8.55;3.83;;;;;;;;;;6164431;23;20087;-89
2023/03/17 07:51:17;;;;;;;6.82;2.78;;;;;;;;;;6164133;23;20008;-89
2023/03/17 07:53:45;;;;;;;5.78;3.45;;;;;;;;;;6187948;23;20013;-89
2023/03/17 07:56:11;;;;;;;9.52;3.60;;;;;;;;;;6187445;23;20008;-89
2023/03/17 07:58:37;;;;;;;6.15;2.88;;;;;;;;;;6187079;23;20092;-88
2023/03/17 08:01:04;;;;;;;7.55;3.40;;;;;;;;;;6187061;23;20622;-89
2023/03/17 08:03:30;;;;;;;9.35;3.53;;;;;;;;;;6186345;23;20031;-88
2023/03/17 08:05:59;;;;;;;7.03;3.15;;;;;;;;;;6162525;23;20578;-88
2023/03/17 08:08:26;;;;;;;6.57;3.47;;;;;;;;;;6186350;23;20648;-87
2023/03/17 08:10:52;;;;;;;8.63;3.28;;;;;;;;;;6187460;23;20005;-88
2023/03/17 08:13:21;;;;;;;9.98;3.67;;;;;;;;;;6164915;23;20459;-89
2023/03/17 08:15:48;;;;;;;5.78;3.55;;;;;;;;;;6162585;23;20100;-89
2023/03/17 08:18:14;;;;;;;6.45;3.20;;;;;;;;;;6163879;23;20664;-88
2023/03/17 08:20:40;;;;;;;7.88;3.35;;;;;;;;;;6163767;23;20435;-89
2023/03/17 08:23:13;;;;;;;6.90;3.30;;;;;;;;;;6183161;22;20401;-88
2023/03/17 08:25:39;;;;;;;6.75;3.40;;;;;;;;;;6218082;23;20012;-87
2023/03/17 08:28:05;;;;;;;8.60;2.83;;;;;;;;;;6247523;23;20004;-88
2023/03/17 08:30:31;;;;;;;6.93;3.65;;;;;;;;;;6220713;23;20004;-89
2023/03/17 08:32:58;;;;;;;7.70;3.53;;;;;;;;;;6220868;23;20015;-89
2023/03/17 08:35:26;;;;;;;6.78;3.58;;;;;;;;;;6194841;23;20019;-87
2023/03/17 08:37:52;;;;;;;11.35;3.47;;;;;;;;;;6219432;23;20026;-88
2023/03/17 08:40:18;;;;;;;6.03;3.47;;;;;;;;;;6220470;23;20010;-89
2023/03/17 08:42:45;;;;;;;3.90;2.53;;;;;;;;;;6192272;23;20590;-89
2023/03/17 08:45:12;;;;;;;5.20;2.58;;;;;;;;;;6219837;23;20008;-89
2023/03/17 08:47:38;;;;;;;7.68;3.42;;;;;;;;;;6219428;23;20027;-89
2023/03/17 08:50:06;;;;;;;9.38;4.05;;;;;;;;;;6219381;23;20032;-89
2023/03/17 08:52:32;;;;;;;5.57;2.53;;;;;;;;;;6220488;23;20210;-89
2023/03/17 08:54:59;;;;;;;5.43;3.08;;;;;;;;;;6221000;23;20015;-89
2023/03/17 08:57:26;;;;;;;8.98;2.80;;;;;;;;;;6194163;23;20016;-89
2023/03/17 08:59:53;;;;;;;7.07;3.95;;;;;;;;;;6218042;23;20018;-88
2023/03/17 09:02:20;;;;;;;9.18;3.50;;;;;;;;;;6193737;23;20550;-90
2023/03/17 09:04:46;;;;;;;6.32;3.58;;;;;;;;;;6217851;23;20356;-88
2023/03/17 09:07:12;;;;;;;9.07;3.70;;;;;;;;;;6217788;23;20012;-89
2023/03/17 09:09:39;;;;;;;7.22;3.70;;;;;;;;;;6246162;23;20426;-88
2023/03/17 09:12:06;;;;;;;8.82;3.45;;;;;;;;;;6223393;23;20016;-90
2023/03/17 09:14:33;;;;;;;9.38;3.22;;;;;;;;;;6192731;23;20618;-90
2023/03/17 09:16:59;;;;;;;9.98;4.00;;;;;;;;;;6218238;23;20009;-90
2023/03/17 09:19:26;;;;;;;6.45;3.45;;;;;;;;;;6215633;23;20103;-89
2023/03/17 09:21:52;;;;;;;9.05;5.70;;;;;;;;;;6217673;22;20434;-90
2023/03/17 09:24:22;;;;;;;6.03;3.08;;;;;;;;;;6192199;23;20501;-90
2023/03/17 09:26:53;;;;;;;8.30;3.17;;;;;;;;;;6225469;23;20004;-90
2023/03/17 09:29:19;;;;;;;9.93;2.85;;;;;;;;;;6243834;23;20486;-90
2023/03/17 09:31:45;;;;;;;5.70;3.70;;;;;;;;;;6217432;23;20012;-90
2023/03/17 09:34:24;;;;;;;11.00;3.53;;;;;;;;;;6217140;23;20012;-90
2023/03/17 09:36:50;;;;;;;5.43;3.03;;;;;;;;;;6220789;23;20004;-89
2023/03/17 09:39:17;;;;;;;13.27;4.45;;;;;;;;;;6248397;23;20014;-89
2023/03/17 09:41:56;;;;;;;12.05;3.47;;;;;;;;;;6224204;23;20047;-90
2023/03/17 09:44:41;;;;;;;5.50;3.65;;;;;;;;;;6224002;23;20042;-89
2023/03/17 09:47:17;;;;;;;7.90;3.55;;;;;;;;;;6215775;23;19996;-90
2023/03/17 09:49:46;;;;;;;9.00;3.25;;;;;;;;;;6216908;23;20004;-89
2023/03/17 09:52:17;;;;;;;5.75;3.13;;;;;;;;;;6223281;23;20293;-90
2023/03/17 09:54:48;;;;;;;6.85;3.53;;;;;;;;;;6220673;23;20426;-91
2023/03/17 09:57:38;;;;;;;10.23;4.13;;;;;;;;;;6249217;23;20023;-90
2023/03/17 10:00:06;;;;;;;11.10;4.00;;;;;;;;;;6244702;23;20512;-89
2023/03/17 10:02:38;;;;;;;11.70;3.25;;;;;;;;;;6220623;23;20349;-90
2023/03/17 10:05:24;;;;;;;8.20;3.97;;;;;;;;;;6199074;23;20004;-91
2023/03/17 10:08:09;;;;;;;10.30;3.72;;;;;;;;;;6223748;23;20000;-90
2023/03/17 10:10:41;;;;;;;10.43;3.92;;;;;;;;;;6217020;23;20015;-89
2023/03/17 10:13:26;;;;;;;9.73;3.70;;;;;;;;;;6253513;23;20416;-90
2023/03/17 10:16:24;;;;;;;8.30;3.53;;;;;;;;;;6219390;23;20007;-90
2023/03/17 10:18:58;;;;;;;11.18;3.92;;;;;;;;;;6149755;23;20505;-90
2023/03/17 10:21:32;;;;;;;12.25;4.22;;;;;;;;;;6214265;23;20018;-90
2023/03/17 10:23:59;;;;;;;9.85;4.07;;;;;;;;;;6243596;22;20016;-90
2023/03/17 10:26:42;;;;;;;7.07;3.85;;;;;;;;;;6190576;23;20482;-90
2023/03/17 10:29:16;;;;;;;13.68;4.35;;;;;;;;;;6218254;23;20430;-91
2023/03/17 10:31:43;;;;;;;5.93;3.72;;;;;;;;;;6227664;23;20063;-90
2023/03/17 10:34:22;;;;;;;6.82;4.22;;;;;;;;;;6225289;23;20064;-90
2023/03/17 10:36:50;;;;;;;8.25;4.47;;;;;;;;;;6223081;23;20012;-90
2023/03/17 10:39:23;;;;;;;9.48;3.70;;;;;;;;;;6222485;23;20014;-91
2023/03/17 10:42:07;;;;;;;8.20;3.95;;;;;;;;;;6203605;23;20012;-90
2023/03/17 10:44:59;;;;;;;7.15;3.88;;;;;;;;;;6223288;23;20056;-90
2023/03/17 10:47:45;;;;;;;7.32;3.60;;;;;;;;;;6250581;23;20414;-91
2023/03/17 10:50:20;;;;;;;6.07;4.30;;;;;;;;;;6222060;23;20012;-90
2023/03/17 10:53:15;;;;;;;6.45;3.17;;;;;;;;;;6224473;23;20008;-91
2023/03/17 10:55:43;;;;;;;4.93;3.58;;;;;;;;;;6218738;23;20655;-91
2023/03/17 10:58:15;;;;;;;10.23;5.32;;;;;;;;;;6225055;23;20039;-90
2023/03/17 11:00:50;;;;;;;8.25;4.05;;;;;;;;;;6223874;23;20097;-91
2023/03/17 11:03:21;;;;;;;8.80;4.45;;;;;;;;;;6251745;23;20042;-91
2023/03/17 11:06:04;;;;;;;5.97;4.22;;;;;;;;;;6221103;23;20399;-91
2023/03/17 11:08:44;;;;;;;8.93;4.47;;;;;;;;;;6194427;23;20011;-90
2023/03/17 11:11:29;;;;;;;5.63;3.75;;;;;;;;;;6248076;23;20004;-91
2023/03/17 11:14:10;;;;;;;11.30;4.43;;;;;;;;;;6217544;23;20480;-90
2023/03/17 11:16:37;;;;;;;8.95;4.38;;;;;;;;;;6239426;23;20042;-90
2023/03/17 11:19:04;;;;;;;10.32;4.80;;;;;;;;;;6215585;23;20039;-91
2023/03/17 11:21:33;;;;;;;9.80;4.85;;;;;;;;;;6219010;23;20464;-91
2023/03/17 11:24:19;;;;;;;14.23;4.60;;;;;;;;;;6248609;22;20019;-91
2023/03/17 11:27:00;;;;;;;6.53;4.50;;;;;;;;;;6224824;23;20751;-91
2023/03/17 11:30:03;;;;;;;10.48;4.60;;;;;;;;;;6225770;23;20008;-91
2023/03/17 11:32:56;;;;;;;9.57;4.60;;;;;;;;;;6228977;23;20004;-91
2023/03/17 11:35:34;;;;;;;12.40;4.30;;;;;;;;;;6215108;23;20008;-91
2023/03/17 11:38:24;;;;;;;8.27;4.43;;;;;;;;;;6227832;23;20386;-91
2023/03/17 11:41:10;;;;;;;10.60;4.20;;;;;;;;;;6227960;23;20008;-91
2023/03/17 11:43:55;;;;;;;8.95;4.30;;;;;;;;;;6226623;23;20035;-90
2023/03/17 11:46:40;;;;;;;12.20;5.00;;;;;;;;;;6219221;23;20062;-90
2023/03/17 11:49:19;;;;;;;10.00;4.88;;;;;;;;;;6229550;23;20411;-91
2023/03/17 11:52:10;;;;;;;9.18;4.50;;;;;;;;;;6224351;23;20008;-90
2023/03/17 11:54:59;;;;;;;7.80;4.80;;;;;;;;;;6222725;23;20024;-90
2023/03/17 11:57:34;;;;;;;8.57;4.45;;;;;;;;;;6244866;23;20012;-91
2023/03/17 12:00:20;;;;;;;15.20;4.70;;;;;;;;;;6226328;23;20009;-91
2023/03/17 12:03:06;;;;;;;8.48;4.65;;;;;;;;;;6224166;23;20040;-91
2023/03/17 12:05:45;;;;;;;6.97;4.28;;;;;;;;;;6226280;23;20011;-91
2023/03/17 12:08:21;;;;;;;10.25;4.47;;;;;;;;;;6189519;23;20008;-91
2023/03/17 12:10:53;;;;;;;6.40;4.68;;;;;;;;;;6225831;23;20921;-92
2023/03/17 12:13:51;;;;;;;5.82;4.35;;;;;;;;;;6217220;23;19992;-91
2023/03/17 12:16:21;;;;;;;9.65;4.75;;;;;;;;;;6250250;23;20346;-91
2023/03/17 12:19:10;;;;;;;11.30;4.45;;;;;;;;;;6229687;23;20008;-90
2023/03/17 12:21:58;;;;;;;12.55;4.43;;;;;;;;;;6227389;23;20008;-91
2023/03/17 12:24:28;;;;;;;9.77;4.78;;;;;;;;;;6230952;22;20016;-90
2023/03/17 12:27:15;;;;;;;15.32;4.82;;;;;;;;;;6253456;23;20016;-91
2023/03/17 12:29:57;;;;;;;9.68;4.75;;;;;;;;;;6216956;23;20139;-90
2023/03/17 12:32:48;;;;;;;11.20;5.50;;;;;;;;;;6218156;23;20012;-91
2023/03/17 12:35:25;;;;;;;11.75;5.28;;;;;;;;;;6216704;23;20008;-91
2023/03/17 12:37:51;;;;;;;10.68;6.50;;;;;;;;;;6223913;23;20004;-91
2023/03/17 12:40:19;;;;;;;11.00;5.78;;;;;;;;;;6224413;23;20008;-91
2023/03/17 12:42:52;;;;;;;9.52;5.47;;;;;;;;;;6217302;23;20008;-91
2023/03/17 12:45:19;;;;;;;9.82;5.85;;;;;;;;;;6216864;23;20000;-91
2023/03/17 12:47:51;;;;;;;11.40;6.20;;;;;;;;;;6218779;23;20339;-91
2023/03/17 12:50:24;;;;;;;8.80;5.32;;;;;;;;;;6219119;23;20449;-91
2023/03/17 12:53:13;;;;;;;11.25;5.38;;;;;;;;;;6218617;23;20008;-90
2023/03/17 12:55:41;;;;;;;13.45;5.78;;;;;;;;;;6225657;23;20015;-91
2023/03/17 12:58:22;;;;;;;14.50;6.65;;;;;;;;;;6191408;23;20008;-90
2023/03/17 13:01:16;;;;;;;8.73;5.45;;;;;;;;;;6216546;23;20008;-92
2023/03/17 13:03:54;;;;;;;10.63;5.20;;;;;;;;;;6205645;23;20438;-91
2023/03/17 13:06:29;;;;;;;14.10;5.65;;;;;;;;;;6223093;23;20456;-91
2023/03/17 13:08:55;;;;;;;14.05;5.60;;;;;;;;;;6220879;23;20032;-90
2023/03/17 13:11:51;;;;;;;10.10;5.78;;;;;;;;;;6222364;23;20008;-91
2023/03/17 13:14:26;;;;;;;8.50;5.07;;;;;;;;;;6141429;23;20093;-91
2023/03/17 13:17:03;;;;;;;9.10;5.47;;;;;;;;;;6249824;23;20058;-91
2023/03/17 13:19:37;;;;;;;8.93;5.70;;;;;;;;;;6221080;23;20014;-91
2023/03/17 13:22:06;;;;;;;10.15;4.30;;;;;;;;;;6222518;23;20032;-91
2023/03/17 13:24:47;;;;;;;13.10;6.10;;;;;;;;;;6224664;22;20020;-91
2023/03/17 13:27:33;;;;;;;12.45;5.45;;;;;;;;;;6220921;23;20083;-91
2023/03/17 13:30:21;;;;;;;9.93;5.43;;;;;;;;;;6200921;23;20004;-90
2023/03/17 13:33:18;;;;;;;10.60;5.75;;;;;;;;;;6221417;23;20042;-91
2023/03/17 13:35:44;;;;;;;12.77;6.10;;;;;;;;;;6224854;23;20418;-90
2023/03/17 13:38:26;;;;;;;17.20;7.07;;;;;;;;;;6221388;23;20525;-91
2023/03/17 13:40:58;;;;;;;11.77;5.95;;;;;;;;;;6221380;23;20015;-91
2023/03/17 13:43:43;;;;;;;14.50;6.30;;;;;;;;;;6219435;23;20172;-90
2023/03/17 13:46:21;;;;;;;10.32;5.65;;;;;;;;;;6221237;23;20004;-91
2023/03/17 13:48:47;;;;;;;9.30;5.45;;;;;;;;;;6220561;23;20003;-91
2023/03/17 13:51:16;;;;;;;11.15;6.15;;;;;;;;;;6221014;23;20015;-90
2023/03/17 13:54:18;;;;;;;10.50;5.65;;;;;;;;;;6220386;23;20512;-91
2023/03/17 13:56:45;;;;;;;11.77;6.15;;;;;;;;;;6100220;23;20010;-91
2023/03/17 13:59:14;;;;;;;14.63;5.95;;;;;;;;;;6222738;23;20019;-91
2023/03/17 14:01:53;;;;;;;14.30;5.82;;;;;;;;;;6219901;23;20008;-91
2023/03/17 14:04:27;;;;;;;9.50;5.60;;;;;;;;;;6221387;23;20008;-90
2023/03/17 14:06:56;;;;;;;9.70;6.07;;;;;;;;;;6219920;23;20004;-90
2023/03/17 14:09:31;;;;;;;9.43;5.47;;;;;;;;;;6222398;23;20016;-90
2023/03/17 14:12:00;;;;;;;9.88;5.45;;;;;;;;;;6245871;23;20030;-90
2023/03/17 14:15:03;;;;;;;11.40;6.07;;;;;;;;;;6221499;23;20284;-90
2023/03/17 14:17:48;;;;;;;10.60;6.30;;;;;;;;;;6183916;23;20079;-90
2023/03/17 14:20:15;;;;;;;11.45;6.30;;;;;;;;;;6220648;23;20008;-88
2023/03/17 14:22:53;;;;;;;10.57;5.72;;;;;;;;;;6219341;23;20011;-89
2023/03/17 14:25:36;;;;;;;16.25;6.57;;;;;;;;;;6191192;23;20013;-89
2023/03/17 14:28:07;;;;;;;12.10;5.38;;;;;;;;;;6165660;23;20122;-90
2023/03/17 14:30:36;;;;;;;15.25;6.25;;;;;;;;;;6188606;23;20004;-90
2023/03/17 14:33:05;;;;;;;13.95;6.68;;;;;;;;;;6191067;23;20024;-90
2023/03/17 14:35:40;;;;;;;9.32;5.43;;;;;;;;;;6189513;23;20009;-90
2023/03/17 14:38:26;;;;;;;12.82;6.20;;;;;;;;;;6189075;23;20023;-89
2023/03/17 14:41:21;;;;;;;10.00;5.70;;;;;;;;;;6187178;23;20078;-89
2023/03/17 14:43:47;;;;;;;15.27;5.95;;;;;;;;;;6181211;23;20222;-90
2023/03/17 14:46:21;;;;;;;12.60;6.22;;;;;;;;;;6189119;23;20001;-90
2023/03/17 14:48:48;;;;;;;12.80;7.00;;;;;;;;;;6186528;23;20347;-90
2023/03/17 14:51:21;;;;;;;10.57;5.70;;;;;;;;;;6190462;23;20078;-90
2023/03/17 14:53:57;;;;;;;16.88;6.63;;;;;;;;;;6190245;23;20013;-89
2023/03/17 14:56:24;;;;;;;15.15;6.57;;;;;;;;;;6189180;23;20039;-89
2023/03/17 14:58:51;;;;;;;15.98;6.22;;;;;;;;;;6188072;23;20008;-89
2023/03/17 15:01:20;;;;;;;11.80;5.68;;;;;;;;;;6186364;23;20420;-88
2023/03/17 15:03:57;;;;;;;15.18;6.68;;;;;;;;;;6188625;23;20008;-90